sensor_id;sensor_type;location;lat;lon;timestamp;temperature;humidity
80540;DHT22;69869;48.036;15.780;2023-07-13T00:00:33;22.90;89.30
80540;DHT22;69869;48.036;15.780;2023-07-13T00:02:59;22.90;89.20
80540;DHT22;69869;48.036;15.780;2023-07-13T00:05:25;22.90;89.20
80540;DHT22;69869;48.036;15.780;2023-07-13T00:07:51;22.90;89.00
80540;DHT22;69869;48.036;15.780;2023-07-13T00:10:17;22.90;89.20
80540;DHT22;69869;48.036;15.780;2023-07-13T00:12:43;22.90;89.20
80540;DHT22;69869;48.036;15.780;2023-07-13T00:15:15;22.90;89.10
80540;DHT22;69869;48.036;15.780;2023-07-13T00:17:42;22.90;88.90
80540;DHT22;69869;48.036;15.780;2023-07-13T00:20:10;22.90;89.00
80540;DHT22;69869;48.036;15.780;2023-07-13T00:22:36;22.90;89.00
80540;DHT22;69869;48.036;15.780;2023-07-13T00:25:02;22.90;89.20
80540;DHT22;69869;48.036;15.780;2023-07-13T00:27:28;22.90;89.30
80540;DHT22;69869;48.036;15.780;2023-07-13T00:29:57;22.90;89.10
80540;DHT22;69869;48.036;15.780;2023-07-13T00:32:22;22.90;89.10
80540;DHT22;69869;48.036;15.780;2023-07-13T00:34:48;22.90;89.10
80540;DHT22;69869;48.036;15.780;2023-07-13T00:37:13;22.90;89.00
80540;DHT22;69869;48.036;15.780;2023-07-13T00:39:39;22.90;89.80
80540;DHT22;69869;48.036;15.780;2023-07-13T00:42:05;22.90;89.00
80540;DHT22;69869;48.036;15.780;2023-07-13T00:44:31;22.90;89.10
80540;DHT22;69869;48.036;15.780;2023-07-13T00:46:56;22.90;89.00
80540;DHT22;69869;48.036;15.780;2023-07-13T00:49:26;22.90;89.10
80540;DHT22;69869;48.036;15.780;2023-07-13T00:51:58;22.90;89.10
80540;DHT22;69869;48.036;15.780;2023-07-13T00:54:37;22.90;89.00
80540;DHT22;69869;48.036;15.780;2023-07-13T00:57:07;22.90;89.10
80540;DHT22;69869;48.036;15.780;2023-07-13T00:59:35;22.90;89.00
80540;DHT22;69869;48.036;15.780;2023-07-13T01:02:03;22.90;89.20
80540;DHT22;69869;48.036;15.780;2023-07-13T01:04:29;22.90;89.10
80540;DHT22;69869;48.036;15.780;2023-07-13T01:06:55;22.90;89.00
80540;DHT22;69869;48.036;15.780;2023-07-13T01:09:21;22.90;89.20
80540;DHT22;69869;48.036;15.780;2023-07-13T01:11:47;22.90;89.10
80540;DHT22;69869;48.036;15.780;2023-07-13T01:14:13;22.90;89.00
80540;DHT22;69869;48.036;15.780;2023-07-13T01:16:41;22.90;89.10
80540;DHT22;69869;48.036;15.780;2023-07-13T01:22:02;22.90;89.30
80540;DHT22;69869;48.036;15.780;2023-07-13T01:24:28;22.90;89.10
80540;DHT22;69869;48.036;15.780;2023-07-13T01:26:54;22.90;89.10
80540;DHT22;69869;48.036;15.780;2023-07-13T01:29:21;22.90;89.00
80540;DHT22;69869;48.036;15.780;2023-07-13T01:31:46;22.90;89.10
80540;DHT22;69869;48.036;15.780;2023-07-13T01:34:13;22.90;89.10
80540;DHT22;69869;48.036;15.780;2023-07-13T01:36:38;22.90;89.00
80540;DHT22;69869;48.036;15.780;2023-07-13T01:39:04;22.90;88.90
80540;DHT22;69869;48.036;15.780;2023-07-13T01:41:30;22.90;89.10
80540;DHT22;69869;48.036;15.780;2023-07-13T01:43:55;22.90;89.10
80540;DHT22;69869;48.036;15.780;2023-07-13T01:46:21;22.90;89.20
80540;DHT22;69869;48.036;15.780;2023-07-13T01:48:47;22.90;89.10
80540;DHT22;69869;48.036;15.780;2023-07-13T01:51:13;22.90;89.00
80540;DHT22;69869;48.036;15.780;2023-07-13T01:53:38;22.90;89.00
80540;DHT22;69869;48.036;15.780;2023-07-13T01:56:04;22.90;89.00
80540;DHT22;69869;48.036;15.780;2023-07-13T01:58:30;22.90;89.00
80540;DHT22;69869;48.036;15.780;2023-07-13T02:00:55;22.90;89.10
80540;DHT22;69869;48.036;15.780;2023-07-13T02:03:21;22.90;89.00
80540;DHT22;69869;48.036;15.780;2023-07-13T02:05:47;22.90;89.00
80540;DHT22;69869;48.036;15.780;2023-07-13T02:08:12;22.90;89.00
80540;DHT22;69869;48.036;15.780;2023-07-13T02:10:38;22.90;89.10
80540;DHT22;69869;48.036;15.780;2023-07-13T02:13:07;22.90;89.80
80540;DHT22;69869;48.036;15.780;2023-07-13T02:15:33;22.90;88.90
80540;DHT22;69869;48.036;15.780;2023-07-13T02:17:58;22.90;89.00
80540;DHT22;69869;48.036;15.780;2023-07-13T02:20:25;22.90;89.00
80540;DHT22;69869;48.036;15.780;2023-07-13T02:22:51;22.90;89.10
80540;DHT22;69869;48.036;15.780;2023-07-13T02:25:17;22.90;89.00
80540;DHT22;69869;48.036;15.780;2023-07-13T02:27:43;22.90;89.00
80540;DHT22;69869;48.036;15.780;2023-07-13T02:30:12;22.90;89.00
80540;DHT22;69869;48.036;15.780;2023-07-13T02:32:37;22.90;88.90
80540;DHT22;69869;48.036;15.780;2023-07-13T02:35:03;22.90;89.00
80540;DHT22;69869;48.036;15.780;2023-07-13T02:37:32;22.90;89.10
80540;DHT22;69869;48.036;15.780;2023-07-13T02:39:57;22.90;88.90
80540;DHT22;69869;48.036;15.780;2023-07-13T02:42:23;22.90;88.90
80540;DHT22;69869;48.036;15.780;2023-07-13T02:44:48;22.90;89.00
80540;DHT22;69869;48.036;15.780;2023-07-13T02:47:16;22.90;88.90
80540;DHT22;69869;48.036;15.780;2023-07-13T02:49:41;22.90;89.00
80540;DHT22;69869;48.036;15.780;2023-07-13T02:52:07;22.90;89.00
80540;DHT22;69869;48.036;15.780;2023-07-13T02:54:33;22.90;89.00
80540;DHT22;69869;48.036;15.780;2023-07-13T02:56:59;22.90;89.10
80540;DHT22;69869;48.036;15.780;2023-07-13T02:59:24;22.90;88.90
80540;DHT22;69869;48.036;15.780;2023-07-13T03:01:50;22.90;88.90
80540;DHT22;69869;48.036;15.780;2023-07-13T03:04:15;22.90;89.00
80540;DHT22;69869;48.036;15.780;2023-07-13T03:06:44;22.90;88.90
80540;DHT22;69869;48.036;15.780;2023-07-13T03:09:10;22.90;88.90
80540;DHT22;69869;48.036;15.780;2023-07-13T03:11:38;22.90;88.90
80540;DHT22;69869;48.036;15.780;2023-07-13T03:14:04;22.90;88.90
80540;DHT22;69869;48.036;15.780;2023-07-13T03:16:29;22.90;88.90
80540;DHT22;69869;48.036;15.780;2023-07-13T03:18:55;22.90;88.90
80540;DHT22;69869;48.036;15.780;2023-07-13T03:21:21;22.90;88.90
80540;DHT22;69869;48.036;15.780;2023-07-13T03:23:47;22.90;88.90
80540;DHT22;69869;48.036;15.780;2023-07-13T03:26:15;22.90;89.10
80540;DHT22;69869;48.036;15.780;2023-07-13T03:28:42;22.90;89.00
80540;DHT22;69869;48.036;15.780;2023-07-13T03:31:11;22.90;88.90
80540;DHT22;69869;48.036;15.780;2023-07-13T03:33:37;22.90;88.90
80540;DHT22;69869;48.036;15.780;2023-07-13T03:36:04;22.90;88.80
80540;DHT22;69869;48.036;15.780;2023-07-13T03:38:30;22.90;88.90
80540;DHT22;69869;48.036;15.780;2023-07-13T03:40:56;22.90;88.90
80540;DHT22;69869;48.036;15.780;2023-07-13T03:43:21;22.90;88.90
80540;DHT22;69869;48.036;15.780;2023-07-13T03:45:47;22.90;88.90
80540;DHT22;69869;48.036;15.780;2023-07-13T03:48:13;22.90;88.90
80540;DHT22;69869;48.036;15.780;2023-07-13T03:50:39;22.90;88.80
80540;DHT22;69869;48.036;15.780;2023-07-13T03:53:05;22.90;88.90
80540;DHT22;69869;48.036;15.780;2023-07-13T03:55:31;22.90;88.90
80540;DHT22;69869;48.036;15.780;2023-07-13T03:58:24;22.90;88.90
80540;DHT22;69869;48.036;15.780;2023-07-13T04:00:49;22.80;89.20
80540;DHT22;69869;48.036;15.780;2023-07-13T04:03:15;22.90;88.90
80540;DHT22;69869;48.036;15.780;2023-07-13T04:05:41;22.90;88.90
80540;DHT22;69869;48.036;15.780;2023-07-13T04:08:07;22.90;88.90
80540;DHT22;69869;48.036;15.780;2023-07-13T04:10:33;22.80;88.90
80540;DHT22;69869;48.036;15.780;2023-07-13T04:12:58;22.90;88.90
80540;DHT22;69869;48.036;15.780;2023-07-13T04:15:24;22.90;88.80
80540;DHT22;69869;48.036;15.780;2023-07-13T04:17:49;22.90;88.90
80540;DHT22;69869;48.036;15.780;2023-07-13T04:20:15;22.90;88.90
80540;DHT22;69869;48.036;15.780;2023-07-13T04:22:41;22.90;88.90
80540;DHT22;69869;48.036;15.780;2023-07-13T04:25:07;22.90;88.90
80540;DHT22;69869;48.036;15.780;2023-07-13T04:27:32;22.90;88.90
80540;DHT22;69869;48.036;15.780;2023-07-13T04:29:58;22.80;88.80
80540;DHT22;69869;48.036;15.780;2023-07-13T04:32:24;22.90;88.90
80540;DHT22;69869;48.036;15.780;2023-07-13T04:34:49;22.80;88.90
80540;DHT22;69869;48.036;15.780;2023-07-13T04:37:19;22.80;88.90
80540;DHT22;69869;48.036;15.780;2023-07-13T04:39:45;22.90;88.90
80540;DHT22;69869;48.036;15.780;2023-07-13T04:42:11;22.90;88.90
80540;DHT22;69869;48.036;15.780;2023-07-13T04:44:36;22.80;88.80
80540;DHT22;69869;48.036;15.780;2023-07-13T04:47:02;22.90;88.90
80540;DHT22;69869;48.036;15.780;2023-07-13T04:49:28;22.90;88.80
80540;DHT22;69869;48.036;15.780;2023-07-13T04:51:53;22.90;88.70
80540;DHT22;69869;48.036;15.780;2023-07-13T04:54:20;22.90;88.70
80540;DHT22;69869;48.036;15.780;2023-07-13T04:56:47;22.80;88.70
80540;DHT22;69869;48.036;15.780;2023-07-13T04:59:12;22.90;88.80
80540;DHT22;69869;48.036;15.780;2023-07-13T05:01:38;22.80;88.50
80540;DHT22;69869;48.036;15.780;2023-07-13T05:04:04;22.90;88.60
80540;DHT22;69869;48.036;15.780;2023-07-13T05:06:30;22.80;88.60
80540;DHT22;69869;48.036;15.780;2023-07-13T05:08:56;22.90;88.70
80540;DHT22;69869;48.036;15.780;2023-07-13T05:11:22;22.80;88.60
80540;DHT22;69869;48.036;15.780;2023-07-13T05:13:48;22.80;88.70
80540;DHT22;69869;48.036;15.780;2023-07-13T05:16:13;22.80;88.70
80540;DHT22;69869;48.036;15.780;2023-07-13T05:18:39;22.90;88.90
80540;DHT22;69869;48.036;15.780;2023-07-13T05:21:07;22.90;88.90
80540;DHT22;69869;48.036;15.780;2023-07-13T05:23:34;22.80;88.70
80540;DHT22;69869;48.036;15.780;2023-07-13T05:26:00;22.90;88.70
80540;DHT22;69869;48.036;15.780;2023-07-13T05:28:27;22.80;88.70
80540;DHT22;69869;48.036;15.780;2023-07-13T05:30:53;22.90;88.80
80540;DHT22;69869;48.036;15.780;2023-07-13T05:33:19;22.80;88.70
80540;DHT22;69869;48.036;15.780;2023-07-13T05:35:45;22.90;88.90
80540;DHT22;69869;48.036;15.780;2023-07-13T05:38:11;22.90;89.50
80540;DHT22;69869;48.036;15.780;2023-07-13T05:40:37;22.80;88.70
80540;DHT22;69869;48.036;15.780;2023-07-13T05:43:03;22.80;88.70
80540;DHT22;69869;48.036;15.780;2023-07-13T05:45:29;22.80;88.80
80540;DHT22;69869;48.036;15.780;2023-07-13T05:47:54;22.80;88.80
80540;DHT22;69869;48.036;15.780;2023-07-13T05:50:20;22.90;88.90
80540;DHT22;69869;48.036;15.780;2023-07-13T05:52:46;22.80;88.80
80540;DHT22;69869;48.036;15.780;2023-07-13T05:55:12;22.80;88.80
80540;DHT22;69869;48.036;15.780;2023-07-13T05:57:38;22.80;88.80
80540;DHT22;69869;48.036;15.780;2023-07-13T06:00:04;22.80;88.70
80540;DHT22;69869;48.036;15.780;2023-07-13T06:02:30;22.80;88.70
80540;DHT22;69869;48.036;15.780;2023-07-13T06:04:56;22.80;88.80
80540;DHT22;69869;48.036;15.780;2023-07-13T06:07:21;22.80;88.70
80540;DHT22;69869;48.036;15.780;2023-07-13T06:09:47;22.80;88.80
80540;DHT22;69869;48.036;15.780;2023-07-13T06:12:13;22.80;88.70
80540;DHT22;69869;48.036;15.780;2023-07-13T06:14:38;22.80;88.80
80540;DHT22;69869;48.036;15.780;2023-07-13T06:17:04;22.80;88.80
80540;DHT22;69869;48.036;15.780;2023-07-13T06:19:30;22.80;88.80
80540;DHT22;69869;48.036;15.780;2023-07-13T06:21:56;22.80;88.80
80540;DHT22;69869;48.036;15.780;2023-07-13T06:24:24;22.80;88.60
80540;DHT22;69869;48.036;15.780;2023-07-13T06:26:50;22.80;88.80
80540;DHT22;69869;48.036;15.780;2023-07-13T06:29:15;22.80;88.80
80540;DHT22;69869;48.036;15.780;2023-07-13T06:31:41;22.80;88.70
80540;DHT22;69869;48.036;15.780;2023-07-13T06:34:07;22.80;88.80
80540;DHT22;69869;48.036;15.780;2023-07-13T06:36:32;22.80;88.80
80540;DHT22;69869;48.036;15.780;2023-07-13T06:38:58;22.80;88.80
80540;DHT22;69869;48.036;15.780;2023-07-13T06:41:23;22.80;88.80
80540;DHT22;69869;48.036;15.780;2023-07-13T06:43:52;22.80;88.80
80540;DHT22;69869;48.036;15.780;2023-07-13T06:46:19;22.80;88.80
80540;DHT22;69869;48.036;15.780;2023-07-13T06:48:45;22.80;88.80
80540;DHT22;69869;48.036;15.780;2023-07-13T06:51:10;22.80;88.70
80540;DHT22;69869;48.036;15.780;2023-07-13T06:53:36;22.80;88.80
80540;DHT22;69869;48.036;15.780;2023-07-13T06:56:02;22.80;88.80
80540;DHT22;69869;48.036;15.780;2023-07-13T06:58:28;22.80;88.70
80540;DHT22;69869;48.036;15.780;2023-07-13T07:00:53;22.80;88.60
80540;DHT22;69869;48.036;15.780;2023-07-13T07:03:19;22.80;88.80
80540;DHT22;69869;48.036;15.780;2023-07-13T07:05:45;22.80;88.80
80540;DHT22;69869;48.036;15.780;2023-07-13T07:08:11;22.80;88.70
80540;DHT22;69869;48.036;15.780;2023-07-13T07:10:37;22.80;88.70
80540;DHT22;69869;48.036;15.780;2023-07-13T07:13:03;22.80;88.70
80540;DHT22;69869;48.036;15.780;2023-07-13T07:15:29;22.80;88.70
80540;DHT22;69869;48.036;15.780;2023-07-13T07:17:55;22.80;88.60
80540;DHT22;69869;48.036;15.780;2023-07-13T07:20:20;22.80;88.70
80540;DHT22;69869;48.036;15.780;2023-07-13T07:22:46;22.80;88.60
80540;DHT22;69869;48.036;15.780;2023-07-13T07:25:12;22.80;88.70
80540;DHT22;69869;48.036;15.780;2023-07-13T07:27:38;22.80;88.50
80540;DHT22;69869;48.036;15.780;2023-07-13T07:30:04;22.80;88.60
80540;DHT22;69869;48.036;15.780;2023-07-13T07:32:31;22.80;88.80
80540;DHT22;69869;48.036;15.780;2023-07-13T07:34:57;22.80;88.70
80540;DHT22;69869;48.036;15.780;2023-07-13T07:37:23;22.80;88.60
80540;DHT22;69869;48.036;15.780;2023-07-13T07:39:49;22.80;88.50
80540;DHT22;69869;48.036;15.780;2023-07-13T07:42:15;22.80;88.50
80540;DHT22;69869;48.036;15.780;2023-07-13T07:44:41;22.80;88.50
80540;DHT22;69869;48.036;15.780;2023-07-13T07:47:08;22.80;88.40
80540;DHT22;69869;48.036;15.780;2023-07-13T07:49:35;22.80;88.50
80540;DHT22;69869;48.036;15.780;2023-07-13T07:52:01;22.80;88.60
80540;DHT22;69869;48.036;15.780;2023-07-13T07:54:26;22.80;88.60
80540;DHT22;69869;48.036;15.780;2023-07-13T07:56:52;22.80;88.60
80540;DHT22;69869;48.036;15.780;2023-07-13T07:59:19;22.80;88.60
80540;DHT22;69869;48.036;15.780;2023-07-13T08:01:44;22.80;88.40
80540;DHT22;69869;48.036;15.780;2023-07-13T08:04:12;22.70;88.30
80540;DHT22;69869;48.036;15.780;2023-07-13T08:06:37;22.80;88.60
80540;DHT22;69869;48.036;15.780;2023-07-13T08:09:03;22.80;88.60
80540;DHT22;69869;48.036;15.780;2023-07-13T08:11:30;22.80;88.50
80540;DHT22;69869;48.036;15.780;2023-07-13T08:13:56;22.70;88.50
80540;DHT22;69869;48.036;15.780;2023-07-13T08:16:22;22.80;88.90
80540;DHT22;69869;48.036;15.780;2023-07-13T08:18:48;22.70;88.40
80540;DHT22;69869;48.036;15.780;2023-07-13T08:21:14;22.70;88.20
80540;DHT22;69869;48.036;15.780;2023-07-13T08:23:40;22.80;88.10
80540;DHT22;69869;48.036;15.780;2023-07-13T08:26:06;22.80;88.30
80540;DHT22;69869;48.036;15.780;2023-07-13T08:28:32;22.70;88.20
80540;DHT22;69869;48.036;15.780;2023-07-13T08:31:03;22.70;88.30
80540;DHT22;69869;48.036;15.780;2023-07-13T08:33:29;22.70;88.20
80540;DHT22;69869;48.036;15.780;2023-07-13T08:35:55;22.80;88.90
80540;DHT22;69869;48.036;15.780;2023-07-13T08:38:20;22.80;88.40
80540;DHT22;69869;48.036;15.780;2023-07-13T08:40:55;22.80;88.40
80540;DHT22;69869;48.036;15.780;2023-07-13T08:43:29;22.70;88.20
80540;DHT22;69869;48.036;15.780;2023-07-13T08:46:23;22.80;88.40
80540;DHT22;69869;48.036;15.780;2023-07-13T08:48:56;22.70;88.40
80540;DHT22;69869;48.036;15.780;2023-07-13T08:51:31;22.70;88.20
80540;DHT22;69869;48.036;15.780;2023-07-13T08:54:02;22.70;88.10
80540;DHT22;69869;48.036;15.780;2023-07-13T08:56:30;22.70;88.30
80540;DHT22;69869;48.036;15.780;2023-07-13T08:58:58;22.70;87.90
80540;DHT22;69869;48.036;15.780;2023-07-13T09:04:14;22.70;88.30
80540;DHT22;69869;48.036;15.780;2023-07-13T09:12:22;22.70;88.20
80540;DHT22;69869;48.036;15.780;2023-07-13T09:14:53;22.70;88.10
80540;DHT22;69869;48.036;15.780;2023-07-13T09:17:26;22.70;87.80
80540;DHT22;69869;48.036;15.780;2023-07-13T09:20:17;22.70;88.10
80540;DHT22;69869;48.036;15.780;2023-07-13T09:22:46;22.70;88.10
80540;DHT22;69869;48.036;15.780;2023-07-13T09:25:27;22.70;87.80
80540;DHT22;69869;48.036;15.780;2023-07-13T09:27:58;22.70;88.00
80540;DHT22;69869;48.036;15.780;2023-07-13T09:33:30;22.70;88.10
80540;DHT22;69869;48.036;15.780;2023-07-13T09:35:57;22.70;87.60
80540;DHT22;69869;48.036;15.780;2023-07-13T09:38:25;22.70;87.50
80540;DHT22;69869;48.036;15.780;2023-07-13T09:41:15;22.70;87.60
80540;DHT22;69869;48.036;15.780;2023-07-13T09:46:21;22.70;87.90
80540;DHT22;69869;48.036;15.780;2023-07-13T09:48:50;22.70;88.10
80540;DHT22;69869;48.036;15.780;2023-07-13T09:51:15;22.70;87.70
80540;DHT22;69869;48.036;15.780;2023-07-13T09:53:42;22.70;88.10
80540;DHT22;69869;48.036;15.780;2023-07-13T09:56:29;22.70;88.10
80540;DHT22;69869;48.036;15.780;2023-07-13T09:58:55;22.70;88.30
80540;DHT22;69869;48.036;15.780;2023-07-13T10:01:33;22.70;87.80
80540;DHT22;69869;48.036;15.780;2023-07-13T10:03:59;22.70;87.80
80540;DHT22;69869;48.036;15.780;2023-07-13T10:06:24;22.70;87.80
80540;DHT22;69869;48.036;15.780;2023-07-13T10:08:52;22.70;87.60
80540;DHT22;69869;48.036;15.780;2023-07-13T10:11:19;22.70;88.10
80540;DHT22;69869;48.036;15.780;2023-07-13T10:14:00;22.70;88.00
80540;DHT22;69869;48.036;15.780;2023-07-13T10:16:33;22.70;88.10
80540;DHT22;69869;48.036;15.780;2023-07-13T10:22:24;22.70;88.10
80540;DHT22;69869;48.036;15.780;2023-07-13T10:24:51;22.70;88.30
80540;DHT22;69869;48.036;15.780;2023-07-13T10:27:27;22.70;88.00
80540;DHT22;69869;48.036;15.780;2023-07-13T10:30:19;22.60;87.80
80540;DHT22;69869;48.036;15.780;2023-07-13T10:32:45;22.70;88.30
80540;DHT22;69869;48.036;15.780;2023-07-13T10:35:14;22.70;87.90
80540;DHT22;69869;48.036;15.780;2023-07-13T10:37:49;22.70;87.90
80540;DHT22;69869;48.036;15.780;2023-07-13T10:40:21;22.60;87.50
80540;DHT22;69869;48.036;15.780;2023-07-13T10:42:50;22.70;87.50
80540;DHT22;69869;48.036;15.780;2023-07-13T10:45:20;22.70;87.20
80540;DHT22;69869;48.036;15.780;2023-07-13T10:47:48;22.70;87.70
80540;DHT22;69869;48.036;15.780;2023-07-13T10:50:20;22.60;86.90
80540;DHT22;69869;48.036;15.780;2023-07-13T10:52:49;22.70;87.30
80540;DHT22;69869;48.036;15.780;2023-07-13T10:58:23;22.70;87.60
80540;DHT22;69869;48.036;15.780;2023-07-13T11:03:47;22.60;87.70
80540;DHT22;69869;48.036;15.780;2023-07-13T11:06:28;22.70;87.40
80540;DHT22;69869;48.036;15.780;2023-07-13T11:09:39;22.70;87.90
80540;DHT22;69869;48.036;15.780;2023-07-13T11:11:45;22.60;87.20
80540;DHT22;69869;48.036;15.780;2023-07-13T11:16:57;22.70;87.50
80540;DHT22;69869;48.036;15.780;2023-07-13T11:22:16;22.70;87.20
80540;DHT22;69869;48.036;15.780;2023-07-13T11:25:00;22.70;87.60
80540;DHT22;69869;48.036;15.780;2023-07-13T11:27:42;22.70;86.90
80540;DHT22;69869;48.036;15.780;2023-07-13T11:33:15;22.70;86.80
80540;DHT22;69869;48.036;15.780;2023-07-13T11:36:03;22.70;86.60
80540;DHT22;69869;48.036;15.780;2023-07-13T11:38:41;22.70;86.70
80540;DHT22;69869;48.036;15.780;2023-07-13T11:41:18;22.70;86.50
80540;DHT22;69869;48.036;15.780;2023-07-13T11:43:45;22.70;86.40
80540;DHT22;69869;48.036;15.780;2023-07-13T11:48:46;22.70;86.80
80540;DHT22;69869;48.036;15.780;2023-07-13T11:53:48;22.70;86.70
80540;DHT22;69869;48.036;15.780;2023-07-13T11:56:14;22.60;86.50
80540;DHT22;69869;48.036;15.780;2023-07-13T11:58:40;22.70;86.20
80540;DHT22;69869;48.036;15.780;2023-07-13T12:01:10;22.70;87.20
80540;DHT22;69869;48.036;15.780;2023-07-13T12:03:41;22.70;86.90
80540;DHT22;69869;48.036;15.780;2023-07-13T12:08:47;22.70;86.80
80540;DHT22;69869;48.036;15.780;2023-07-13T12:11:18;22.70;86.90
80540;DHT22;69869;48.036;15.780;2023-07-13T12:13:45;22.60;86.60
80540;DHT22;69869;48.036;15.780;2023-07-13T12:16:23;22.60;86.40
80540;DHT22;69869;48.036;15.780;2023-07-13T12:18:52;22.60;86.30
80540;DHT22;69869;48.036;15.780;2023-07-13T12:21:19;22.70;86.20
80540;DHT22;69869;48.036;15.780;2023-07-13T12:23:48;22.70;86.60
80540;DHT22;69869;48.036;15.780;2023-07-13T12:26:16;22.70;86.20
80540;DHT22;69869;48.036;15.780;2023-07-13T12:28:52;22.70;86.50
80540;DHT22;69869;48.036;15.780;2023-07-13T12:31:43;22.70;86.40
80540;DHT22;69869;48.036;15.780;2023-07-13T12:34:17;22.70;86.80
80540;DHT22;69869;48.036;15.780;2023-07-13T12:37:00;22.70;86.50
80540;DHT22;69869;48.036;15.780;2023-07-13T12:39:45;22.70;86.30
80540;DHT22;69869;48.036;15.780;2023-07-13T12:42:24;22.70;86.60
80540;DHT22;69869;48.036;15.780;2023-07-13T12:44:57;22.60;86.80
80540;DHT22;69869;48.036;15.780;2023-07-13T12:47:24;22.70;86.70
80540;DHT22;69869;48.036;15.780;2023-07-13T12:49:54;22.70;86.80
80540;DHT22;69869;48.036;15.780;2023-07-13T12:52:33;22.60;86.30
80540;DHT22;69869;48.036;15.780;2023-07-13T12:55:09;22.60;86.10
80540;DHT22;69869;48.036;15.780;2023-07-13T12:57:51;22.70;86.50
80540;DHT22;69869;48.036;15.780;2023-07-13T13:00:34;22.70;86.80
80540;DHT22;69869;48.036;15.780;2023-07-13T13:03:05;22.70;86.10
80540;DHT22;69869;48.036;15.780;2023-07-13T13:05:31;22.60;86.00
80540;DHT22;69869;48.036;15.780;2023-07-13T13:07:57;22.70;87.70
80540;DHT22;69869;48.036;15.780;2023-07-13T13:10:23;22.60;86.70
80540;DHT22;69869;48.036;15.780;2023-07-13T13:12:49;22.70;86.60
80540;DHT22;69869;48.036;15.780;2023-07-13T13:15:15;22.70;86.30
80540;DHT22;69869;48.036;15.780;2023-07-13T13:17:42;22.60;86.30
80540;DHT22;69869;48.036;15.780;2023-07-13T13:20:19;22.60;86.20
80540;DHT22;69869;48.036;15.780;2023-07-13T13:22:45;22.60;86.30
80540;DHT22;69869;48.036;15.780;2023-07-13T13:25:12;22.60;87.00
80540;DHT22;69869;48.036;15.780;2023-07-13T13:27:39;22.60;86.20
80540;DHT22;69869;48.036;15.780;2023-07-13T13:30:14;22.60;86.20
80540;DHT22;69869;48.036;15.780;2023-07-13T13:32:44;22.60;86.30
80540;DHT22;69869;48.036;15.780;2023-07-13T13:35:18;22.60;86.50
80540;DHT22;69869;48.036;15.780;2023-07-13T13:37:46;22.60;86.50
80540;DHT22;69869;48.036;15.780;2023-07-13T13:40:18;22.60;86.70
80540;DHT22;69869;48.036;15.780;2023-07-13T13:42:44;22.60;86.00
80540;DHT22;69869;48.036;15.780;2023-07-13T13:45:10;22.70;86.50
80540;DHT22;69869;48.036;15.780;2023-07-13T13:47:38;22.60;86.30
80540;DHT22;69869;48.036;15.780;2023-07-13T13:50:24;22.60;85.90
80540;DHT22;69869;48.036;15.780;2023-07-13T13:52:50;22.70;85.90
80540;DHT22;69869;48.036;15.780;2023-07-13T13:55:18;22.60;86.40
80540;DHT22;69869;48.036;15.780;2023-07-13T13:57:48;22.70;86.00
80540;DHT22;69869;48.036;15.780;2023-07-13T14:00:15;22.60;85.90
80540;DHT22;69869;48.036;15.780;2023-07-13T14:02:45;22.60;86.20
80540;DHT22;69869;48.036;15.780;2023-07-13T14:05:23;22.60;86.10
80540;DHT22;69869;48.036;15.780;2023-07-13T14:07:54;22.60;86.00
80540;DHT22;69869;48.036;15.780;2023-07-13T14:10:20;22.70;86.20
80540;DHT22;69869;48.036;15.780;2023-07-13T14:12:50;22.60;86.20
80540;DHT22;69869;48.036;15.780;2023-07-13T14:15:21;22.60;86.30
80540;DHT22;69869;48.036;15.780;2023-07-13T14:17:46;22.60;85.70
80540;DHT22;69869;48.036;15.780;2023-07-13T14:20:16;22.70;85.60
80540;DHT22;69869;48.036;15.780;2023-07-13T14:22:42;22.60;85.60
80540;DHT22;69869;48.036;15.780;2023-07-13T14:25:12;22.70;85.80
80540;DHT22;69869;48.036;15.780;2023-07-13T14:27:38;22.70;85.10
80540;DHT22;69869;48.036;15.780;2023-07-13T14:30:15;22.70;85.30
80540;DHT22;69869;48.036;15.780;2023-07-13T14:32:42;22.80;85.40
80540;DHT22;69869;48.036;15.780;2023-07-13T14:35:15;22.80;85.10
80540;DHT22;69869;48.036;15.780;2023-07-13T14:37:41;22.80;85.20
80540;DHT22;69869;48.036;15.780;2023-07-13T14:40:21;22.80;85.30
80540;DHT22;69869;48.036;15.780;2023-07-13T14:42:48;22.80;84.70
80540;DHT22;69869;48.036;15.780;2023-07-13T14:45:16;22.70;84.70
80540;DHT22;69869;48.036;15.780;2023-07-13T14:47:42;22.70;85.10
80540;DHT22;69869;48.036;15.780;2023-07-13T14:50:19;22.70;84.80
80540;DHT22;69869;48.036;15.780;2023-07-13T14:52:46;22.70;84.60
80540;DHT22;69869;48.036;15.780;2023-07-13T14:55:14;22.70;85.40
80540;DHT22;69869;48.036;15.780;2023-07-13T14:57:40;22.70;85.20
80540;DHT22;69869;48.036;15.780;2023-07-13T15:00:24;22.70;85.80
80540;DHT22;69869;48.036;15.780;2023-07-13T15:02:52;22.70;85.60
80540;DHT22;69869;48.036;15.780;2023-07-13T15:05:25;22.70;85.80
80540;DHT22;69869;48.036;15.780;2023-07-13T15:07:56;22.70;85.60
80540;DHT22;69869;48.036;15.780;2023-07-13T15:10:23;22.70;85.50
80540;DHT22;69869;48.036;15.780;2023-07-13T15:12:51;22.70;85.50
80540;DHT22;69869;48.036;15.780;2023-07-13T15:15:17;22.70;85.50
80540;DHT22;69869;48.036;15.780;2023-07-13T15:17:45;22.70;85.90
80540;DHT22;69869;48.036;15.780;2023-07-13T15:22:46;22.60;85.20
80540;DHT22;69869;48.036;15.780;2023-07-13T15:25:16;22.60;85.10
80540;DHT22;69869;48.036;15.780;2023-07-13T15:27:42;22.70;85.10
80540;DHT22;69869;48.036;15.780;2023-07-13T15:30:08;22.70;85.50
80540;DHT22;69869;48.036;15.780;2023-07-13T15:32:34;22.70;85.80
80540;DHT22;69869;48.036;15.780;2023-07-13T15:35:00;22.60;85.40
80540;DHT22;69869;48.036;15.780;2023-07-13T15:37:25;22.70;85.50
80540;DHT22;69869;48.036;15.780;2023-07-13T15:39:51;22.70;85.60
80540;DHT22;69869;48.036;15.780;2023-07-13T15:42:19;22.60;86.30
80540;DHT22;69869;48.036;15.780;2023-07-13T15:44:45;22.60;85.80
80540;DHT22;69869;48.036;15.780;2023-07-13T15:47:13;22.60;85.70
80540;DHT22;69869;48.036;15.780;2023-07-13T15:49:42;22.60;85.90
80540;DHT22;69869;48.036;15.780;2023-07-13T15:52:28;22.60;85.90
80540;DHT22;69869;48.036;15.780;2023-07-13T15:54:54;22.60;86.30
80540;DHT22;69869;48.036;15.780;2023-07-13T15:57:20;22.60;86.10
80540;DHT22;69869;48.036;15.780;2023-07-13T15:59:47;22.60;86.20
80540;DHT22;69869;48.036;15.780;2023-07-13T16:02:18;22.60;85.90
80540;DHT22;69869;48.036;15.780;2023-07-13T16:04:44;22.60;86.10
80540;DHT22;69869;48.036;15.780;2023-07-13T16:07:11;22.60;86.30